createdAt,value
2024-04-23T00:00:02.048Z,7
2024-04-23T00:06:06.015Z,5.8
2024-04-23T00:09:08.068Z,5.5
2024-04-23T00:12:09.914Z,5.4
2024-04-23T00:15:11.874Z,6.8
2024-04-23T00:18:13.917Z,10.8
2024-04-23T00:21:15.782Z,9
2024-04-23T00:24:17.750Z,7.6
2024-04-23T00:27:19.641Z,7.4
2024-04-23T00:30:21.587Z,6
2024-04-23T00:33:23.572Z,6.3
2024-04-23T00:36:25.561Z,6.3
2024-04-23T00:39:27.486Z,5.4
2024-04-23T00:45:31.394Z,6.3
2024-04-23T00:48:33.430Z,5.2
2024-04-23T00:51:35.373Z,6
2024-04-23T00:54:37.279Z,6.3
2024-04-23T00:57:39.302Z,6.1
2024-04-23T01:00:41.269Z,5.9
2024-04-23T01:03:43.163Z,6.7
2024-04-23T01:06:45.147Z,4.2
2024-04-23T01:09:47.124Z,6
2024-04-23T01:12:49.062Z,4.8
2024-04-23T01:15:50.988Z,4.4
2024-04-23T01:18:52.894Z,4.1
2024-04-23T01:21:54.896Z,5.2
2024-04-23T01:24:56.795Z,4.5
2024-04-23T01:27:58.882Z,14.9
2024-04-23T01:31:00.816Z,12.5
2024-04-23T01:34:02.808Z,8.9
2024-04-23T01:37:04.720Z,8
2024-04-23T01:40:06.686Z,6.8
2024-04-23T01:43:08.621Z,6.7
2024-04-23T01:46:10.567Z,5.2
2024-04-23T01:49:12.509Z,7.3
2024-04-23T01:52:14.490Z,5.2
2024-04-23T01:55:16.390Z,5.4
2024-04-23T01:58:18.408Z,4.6
2024-04-23T02:01:20.305Z,4.5
2024-04-23T02:04:22.244Z,4.6
2024-04-23T02:07:24.408Z,5.6
2024-04-23T02:10:26.362Z,4.7
2024-04-23T02:13:28.261Z,4.9
2024-04-23T02:16:30.264Z,7.7
2024-04-23T02:19:32.197Z,4
2024-04-23T02:22:34.188Z,4.2
2024-04-23T02:25:36.128Z,5.1
2024-04-23T02:28:38.072Z,5.6
2024-04-23T02:31:40.014Z,4.5
2024-04-23T02:34:41.937Z,4.7
2024-04-23T02:37:43.922Z,6.5
2024-04-23T02:40:45.895Z,4.8
2024-04-23T02:43:47.953Z,5.8
2024-04-23T02:46:49.783Z,3.8
2024-04-23T02:49:51.798Z,5
2024-04-23T02:52:53.746Z,5.6
2024-04-23T02:55:55.673Z,5.3
2024-04-23T02:58:57.622Z,4.4
2024-04-23T03:01:59.577Z,6
2024-04-23T03:05:01.489Z,5.3
2024-04-23T03:08:03.504Z,4.6
2024-04-23T03:11:05.612Z,5
2024-04-23T03:14:07.341Z,4.1
2024-04-23T03:17:09.342Z,4.7
2024-04-23T03:20:11.289Z,7.5
2024-04-23T03:23:13.211Z,5
2024-04-23T03:26:15.239Z,6.2
2024-04-23T03:29:17.147Z,5.2
2024-04-23T03:32:19.078Z,5.1
2024-04-23T03:35:20.987Z,4.8
2024-04-23T03:38:22.974Z,7.1
2024-04-23T03:41:24.951Z,6.2
2024-04-23T03:44:26.901Z,5.4
2024-04-23T03:47:28.862Z,5.8
2024-04-23T03:50:30.799Z,4.3
2024-04-23T03:53:32.698Z,4
2024-04-23T03:56:34.740Z,4.1
2024-04-23T03:59:36.776Z,5.4
2024-04-23T04:02:38.831Z,5.1
2024-04-23T04:05:40.753Z,6.1
2024-04-23T04:08:42.645Z,4.4
2024-04-23T04:11:44.655Z,6.2
2024-04-23T04:14:46.530Z,5.9
2024-04-23T04:17:48.653Z,5
2024-04-23T04:20:50.495Z,5.2
2024-04-23T04:23:52.481Z,6.8
2024-04-23T04:26:54.414Z,5
2024-04-23T04:29:56.307Z,6.5
2024-04-23T04:36:00.286Z,5.2
2024-04-23T04:39:02.221Z,4.5
2024-04-23T04:42:04.210Z,4.2
2024-04-23T04:45:06.160Z,7
2024-04-23T04:48:08.201Z,4.6
2024-04-23T04:51:10.080Z,4.8
2024-04-23T04:54:11.991Z,6
2024-04-23T04:57:13.970Z,6
2024-04-23T05:00:15.856Z,3.7
2024-04-23T05:06:19.791Z,6.7
2024-04-23T05:09:21.726Z,4.2
2024-04-23T05:15:25.635Z,6.9
2024-04-23T05:18:27.661Z,4.1
2024-04-23T05:21:29.625Z,4.5
2024-04-23T05:24:31.552Z,5.4
2024-04-23T05:27:33.484Z,4.1
2024-04-23T05:30:35.408Z,3.7
2024-04-23T05:33:37.474Z,4.8
2024-04-23T05:36:39.441Z,5.4
2024-04-23T05:39:41.284Z,4.7
2024-04-23T05:45:45.223Z,6.5
2024-04-23T05:48:47.119Z,4.7
2024-04-23T05:51:49.138Z,4.3
2024-04-23T05:54:51.058Z,5.5
2024-04-23T05:57:53.067Z,3.2
2024-04-23T06:00:55.034Z,4.4
2024-04-23T06:03:56.935Z,5.8
2024-04-23T06:06:58.927Z,7.6
2024-04-23T06:10:00.897Z,5.5
2024-04-23T06:13:02.773Z,6.1
2024-04-23T06:16:04.781Z,6.1
2024-04-23T06:19:06.748Z,4.6
2024-04-23T06:22:08.659Z,4.3
2024-04-23T06:25:10.609Z,4.3
2024-04-23T06:28:12.574Z,2.8
2024-04-23T06:31:14.540Z,4.5
2024-04-23T06:34:16.450Z,4.5
2024-04-23T06:37:18.400Z,4
2024-04-23T06:40:20.387Z,3.6
2024-04-23T06:43:22.313Z,3.3
2024-04-23T06:46:24.288Z,3.4
2024-04-23T06:49:26.242Z,3.5
2024-04-23T06:52:28.221Z,2.7
2024-04-23T06:55:30.168Z,4.6
2024-04-23T06:58:32.206Z,3.6
2024-04-23T07:01:34.195Z,3.2
2024-04-23T07:04:36.084Z,4.6
2024-04-23T07:07:38.073Z,3.4
2024-04-23T07:10:40.097Z,3.4
2024-04-23T07:13:41.989Z,4.2
2024-04-23T07:16:44.064Z,3.2
2024-04-23T07:19:47.009Z,4.3
2024-04-23T07:22:47.897Z,3.5
2024-04-23T07:25:49.902Z,2.8
2024-04-23T07:28:51.803Z,2.9
2024-04-23T07:31:53.772Z,4.8
2024-04-23T07:34:55.724Z,3.7
2024-04-23T07:37:57.657Z,3.9
2024-04-23T07:40:59.613Z,3.2
2024-04-23T07:44:01.580Z,3.1
2024-04-23T07:47:03.723Z,4.2
2024-04-23T07:50:05.398Z,4.9
2024-04-23T07:53:07.395Z,2.3
2024-04-23T07:56:09.292Z,3.9
2024-04-23T07:59:11.290Z,3.5
2024-04-23T08:02:13.290Z,4.6
2024-04-23T08:05:15.199Z,4.4
2024-04-23T08:08:17.107Z,2.4
2024-04-23T08:11:19.517Z,3.5
2024-04-23T08:14:21.058Z,3
2024-04-23T08:17:23.101Z,3.9
2024-04-23T08:20:24.897Z,2.9
2024-04-23T08:23:26.914Z,3.4
2024-04-23T08:26:28.885Z,3.3
2024-04-23T08:29:30.822Z,3
2024-04-23T08:32:32.784Z,3.4
2024-04-23T08:35:34.717Z,2.5
2024-04-23T08:38:36.642Z,2.6
2024-04-23T08:41:40.056Z,2.7
2024-04-23T08:44:40.618Z,2.5
2024-04-23T08:47:42.727Z,3.1
2024-04-23T08:50:44.603Z,2.5
2024-04-23T08:53:46.539Z,3
2024-04-23T08:56:48.613Z,2.7
2024-04-23T08:59:51.548Z,2.7
2024-04-23T09:02:52.484Z,3.8
2024-04-23T09:05:54.410Z,3.5
2024-04-23T09:08:56.313Z,3.3
2024-04-23T09:11:58.303Z,2.5
2024-04-23T09:15:00.910Z,3.6
2024-04-23T09:18:02.236Z,4
2024-04-23T09:21:04.145Z,2.9
2024-04-23T09:24:06.094Z,3.5
2024-04-23T09:27:08.069Z,5.3
2024-04-23T09:30:10.004Z,2.8
2024-04-23T09:36:13.959Z,2.7
2024-04-23T09:39:15.928Z,2.3
2024-04-23T09:42:17.924Z,2.5
2024-04-23T09:45:20.250Z,2.4
2024-04-23T09:48:21.926Z,2.6
2024-04-23T09:51:23.772Z,4.2
2024-04-23T09:54:25.749Z,2.6
2024-04-23T09:57:27.736Z,2.6
2024-04-23T10:00:29.711Z,3.2
2024-04-23T10:03:31.819Z,4.7
2024-04-23T10:06:33.617Z,2.6
2024-04-23T10:09:35.526Z,2.9
2024-04-23T10:15:39.502Z,1.8
2024-04-23T10:21:43.458Z,2.7
2024-04-23T10:24:45.322Z,1.8
2024-04-23T10:27:47.299Z,4
2024-04-23T10:30:49.292Z,3.1
2024-04-23T10:33:51.266Z,3
2024-04-23T10:36:53.360Z,2.8
2024-04-23T10:39:55.109Z,3.3
2024-04-23T10:42:57.138Z,2.7
2024-04-23T10:45:59.110Z,2.4
2024-04-23T10:49:01.208Z,2.5
2024-04-23T10:52:02.986Z,1.8
2024-04-23T10:55:04.956Z,2.7
2024-04-23T10:58:07.044Z,2.7
2024-04-23T11:01:09.199Z,2.6
2024-04-23T11:04:11.069Z,3.9
2024-04-23T11:07:13.036Z,3.1
2024-04-23T11:10:14.931Z,2.2
2024-04-23T11:13:16.820Z,3
2024-04-23T11:16:19.038Z,2.1
2024-04-23T11:19:20.806Z,2
2024-04-23T11:22:22.688Z,2.6
2024-04-23T11:25:24.645Z,1.4
2024-04-23T11:28:26.587Z,1.1
2024-04-23T11:31:28.693Z,2
2024-04-23T11:34:30.545Z,1.9
2024-04-23T11:37:32.572Z,2.1
2024-04-23T11:40:34.510Z,1.8
2024-04-23T11:43:36.514Z,2.3
2024-04-23T11:46:38.498Z,2
2024-04-23T11:49:40.489Z,1.4
2024-04-23T11:52:42.445Z,2.4
2024-04-23T11:55:44.385Z,2.3
2024-04-23T11:58:46.326Z,1.6
2024-04-23T12:01:48.373Z,2.7
2024-04-23T12:04:50.481Z,1.5
2024-04-23T12:07:52.314Z,1.3
2024-04-23T12:10:54.269Z,1.7
2024-04-23T12:13:56.187Z,2.4
2024-04-23T12:16:58.169Z,1.1
2024-04-23T12:20:00.627Z,1.6
2024-04-23T12:23:02.177Z,1.5
2024-04-23T12:26:04.218Z,1.7
2024-04-23T12:29:06.165Z,1.3
2024-04-23T12:32:08.235Z,1.9
2024-04-23T12:35:10.388Z,1.3
2024-04-23T12:38:12.360Z,1.1
2024-04-23T12:41:14.162Z,1.4
2024-04-23T12:44:16.163Z,1.5
2024-04-23T12:47:18.083Z,1.4
2024-04-23T12:50:20.312Z,2.6
2024-04-23T12:53:22.110Z,1.1
2024-04-23T12:56:23.930Z,2.3
2024-04-23T12:59:25.944Z,2.3
2024-04-23T13:02:27.962Z,2.4
2024-04-23T13:05:29.933Z,2.6
2024-04-23T13:08:31.833Z,2
2024-04-23T13:11:33.922Z,1.6
2024-04-23T13:14:35.759Z,1.9
2024-04-23T13:17:37.798Z,2.1
2024-04-23T13:20:39.841Z,1.9
2024-04-23T13:23:41.630Z,3
2024-04-23T13:26:43.590Z,1.3
2024-04-23T13:29:45.822Z,1.9
2024-04-23T13:32:47.638Z,3.4
2024-04-23T13:35:49.503Z,2.1
2024-04-23T13:38:51.585Z,2.6
2024-04-23T13:41:53.453Z,2.6
2024-04-23T13:44:55.365Z,1.6
2024-04-23T13:47:57.360Z,2.3
2024-04-23T13:50:59.258Z,2
2024-04-23T13:54:01.441Z,2
2024-04-23T13:57:03.309Z,3.5
2024-04-23T14:06:09.292Z,1.5
2024-04-23T14:09:11.277Z,2.3
2024-04-23T14:12:13.509Z,1.5
2024-04-23T14:15:15.447Z,3.1
2024-04-23T14:18:17.471Z,2.9
2024-04-23T14:21:19.692Z,1.8
2024-04-23T14:24:21.358Z,2.7
2024-04-23T14:27:23.274Z,1.8
2024-04-23T14:30:27.185Z,1.8
2024-04-23T14:33:27.381Z,2.4
2024-04-23T14:36:29.348Z,2.2
2024-04-23T14:39:31.306Z,2
2024-04-23T14:42:33.305Z,1.4
2024-04-23T14:45:35.236Z,1.4
2024-04-23T14:48:37.298Z,1.7
2024-04-23T14:51:39.257Z,2.1
2024-04-23T14:54:41.140Z,1.7
2024-04-23T14:57:43.108Z,2.2
2024-04-23T15:00:45.070Z,1.3
2024-04-23T15:03:47.303Z,2.4
2024-04-23T15:06:49.087Z,2.5
2024-04-23T15:09:50.996Z,3.9
2024-04-23T15:15:55.046Z,2
2024-04-23T15:18:57.053Z,3.3
2024-04-23T15:21:58.932Z,2.4
2024-04-23T15:25:00.881Z,1.7
2024-04-23T15:28:02.844Z,2
2024-04-23T15:31:04.760Z,2.3
2024-04-23T15:34:06.725Z,4.1
2024-04-23T15:37:08.732Z,3
2024-04-23T15:40:10.704Z,2
2024-04-23T15:43:12.760Z,4.3
2024-04-23T15:46:14.763Z,2.2
2024-04-23T15:49:16.847Z,2.6
2024-04-23T15:52:18.929Z,3.5
2024-04-23T15:55:20.870Z,1.8
2024-04-23T15:58:22.935Z,2.3
2024-04-23T16:01:25.050Z,1.7
2024-04-23T16:04:27.109Z,2.9
2024-04-23T16:07:29.068Z,1.7
2024-04-23T16:10:31.140Z,1.8
2024-04-23T16:13:33.039Z,2.7
2024-04-23T16:16:35.028Z,2.2
2024-04-23T16:19:36.953Z,3.2
2024-04-23T16:22:39.086Z,1.7
2024-04-23T16:25:40.934Z,3.3
2024-04-23T16:28:42.957Z,1.2
2024-04-23T16:31:44.855Z,2.5
2024-04-23T16:34:46.866Z,2.1
2024-04-23T16:37:48.808Z,2.6
2024-04-23T16:40:50.922Z,2.9
2024-04-23T16:43:52.749Z,1.9
2024-04-23T16:46:54.667Z,2.7
2024-04-23T16:49:56.700Z,2.1
2024-04-23T16:52:58.764Z,3.6
2024-04-23T16:56:00.683Z,2.4
2024-04-23T16:59:02.520Z,2.6
2024-04-23T17:02:04.550Z,2.4
2024-04-23T17:05:06.501Z,1.9
2024-04-23T17:08:08.423Z,2
2024-04-23T17:11:10.421Z,1.9
2024-04-23T17:14:12.393Z,1.1
2024-04-23T17:17:14.275Z,2.4
2024-04-23T17:20:16.225Z,2.3
2024-04-23T17:23:18.348Z,1.5
2024-04-23T17:26:20.210Z,1.6
2024-04-23T17:29:22.343Z,1.7
2024-04-23T17:32:24.259Z,1.2
2024-04-23T17:35:26.142Z,2.5
2024-04-23T17:38:28.169Z,1.2
2024-04-23T17:41:30.045Z,3.1
2024-04-23T17:44:32.022Z,2.6
2024-04-23T17:47:34.969Z,1.8
2024-04-23T17:50:36.061Z,3.9
2024-04-23T17:53:38.084Z,2.1
2024-04-23T17:56:40.060Z,1.6
2024-04-23T17:59:41.946Z,2.7
2024-04-23T18:02:43.947Z,3
2024-04-23T18:05:45.870Z,2.8
2024-04-23T18:08:47.933Z,2.1
2024-04-23T18:11:49.900Z,2.5
2024-04-23T18:14:51.822Z,2.7
2024-04-23T18:17:56.053Z,3.5
2024-04-23T18:20:55.764Z,1.9
2024-04-23T18:23:57.730Z,2.7
2024-04-23T18:26:59.750Z,2
2024-04-23T18:30:01.707Z,1.8
2024-04-23T18:36:05.638Z,1.8
2024-04-23T18:39:07.637Z,1.9
2024-04-23T18:42:09.485Z,1.2
2024-04-23T18:45:11.475Z,1.5
2024-04-23T18:48:13.466Z,1.7
2024-04-23T18:51:15.334Z,1.9
2024-04-23T18:54:17.311Z,2.2
2024-04-23T18:57:19.271Z,1.7
2024-04-23T19:03:23.285Z,2
2024-04-23T19:06:25.088Z,1.6
2024-04-23T19:09:27.087Z,2.3
2024-04-23T19:15:31.068Z,2.1
2024-04-23T19:18:32.998Z,3.9
2024-04-23T19:21:34.928Z,1.4
2024-04-23T19:24:36.928Z,2.1
2024-04-23T19:27:38.876Z,1.9
2024-04-23T19:30:40.824Z,2
2024-04-23T19:33:42.881Z,2.7
2024-04-23T19:36:44.690Z,1.8
2024-04-23T19:39:46.687Z,4.9
2024-04-23T19:45:50.556Z,2.7
2024-04-23T19:48:52.715Z,2.7
2024-04-23T19:51:54.464Z,1.9
2024-04-23T19:54:56.464Z,3.6
2024-04-23T19:57:58.432Z,2.5
2024-04-23T20:01:00.436Z,2.8
2024-04-23T20:04:02.408Z,2.5
2024-04-23T20:07:04.307Z,3.7
2024-04-23T20:10:06.290Z,3.4
2024-04-23T20:13:08.222Z,2.7
2024-04-23T20:16:10.151Z,4
2024-04-23T20:19:12.123Z,3
2024-04-23T20:22:14.089Z,3.3
2024-04-23T20:25:15.999Z,2.6
2024-04-23T20:28:18.010Z,2.5
2024-04-23T20:31:19.967Z,3.1
2024-04-23T20:34:22.288Z,4.6
2024-04-23T20:37:23.835Z,5.5
2024-04-23T20:40:25.826Z,3.6
2024-04-23T20:43:27.827Z,2.8
2024-04-23T20:46:29.731Z,3.2
2024-04-23T20:49:31.724Z,3.3
2024-04-23T20:52:33.676Z,4.7
2024-04-23T20:55:35.616Z,4.5
2024-04-23T20:58:37.610Z,5.1
2024-04-23T21:01:39.716Z,4.3
2024-04-23T21:04:41.795Z,4.2
2024-04-23T21:07:43.709Z,4.5
2024-04-23T21:10:45.582Z,4.2
2024-04-23T21:13:47.570Z,4.7
2024-04-23T21:16:49.594Z,4.5
2024-04-23T21:19:51.458Z,4.5
2024-04-23T21:22:53.489Z,4.4
2024-04-23T21:25:55.391Z,4.9
2024-04-23T21:28:57.325Z,4.5
2024-04-23T21:31:59.273Z,4.7
2024-04-23T21:35:01.410Z,4.2
2024-04-23T21:38:03.244Z,5.1
2024-04-23T21:41:05.125Z,4.4
2024-04-23T21:44:07.144Z,4.8
2024-04-23T21:47:09.036Z,6
2024-04-23T21:50:10.991Z,4.4
2024-04-23T21:53:13.078Z,5.6
2024-04-23T21:56:14.972Z,6.6
2024-04-23T21:59:16.957Z,4.4
2024-04-23T22:02:18.771Z,4.2
2024-04-23T22:05:20.814Z,5.8
2024-04-23T22:08:22.769Z,7.1
2024-04-23T22:11:24.676Z,6.5
2024-04-23T22:14:26.697Z,6.3
2024-04-23T22:17:28.595Z,6.4
2024-04-23T22:20:30.495Z,5.1
2024-04-23T22:23:32.522Z,6.2
2024-04-23T22:26:34.390Z,4.1
2024-04-23T22:29:36.408Z,4.7
2024-04-23T22:32:38.476Z,4.5
2024-04-23T22:35:40.302Z,6
2024-04-23T22:38:42.291Z,7.3
2024-04-23T22:41:44.158Z,5.4
2024-04-23T22:44:46.193Z,7.6
2024-04-23T22:47:48.210Z,6.5
2024-04-23T22:50:50.088Z,6
2024-04-23T22:53:52.353Z,5
2024-04-23T22:56:54.062Z,5.2
2024-04-23T22:59:56.029Z,6.8
2024-04-23T23:05:59.867Z,6.6
2024-04-23T23:09:01.942Z,6.5
2024-04-23T23:12:03.885Z,4.8
2024-04-23T23:15:05.837Z,4.8
2024-04-23T23:18:07.772Z,5.7
2024-04-23T23:21:09.658Z,6
2024-04-23T23:24:11.593Z,5.8
2024-04-23T23:27:13.646Z,5.8
2024-04-23T23:30:15.609Z,4.9
2024-04-23T23:33:17.610Z,6.4
2024-04-23T23:36:19.462Z,5.8
2024-04-23T23:39:21.422Z,7.4
2024-04-23T23:45:27.515Z,7.4
2024-04-23T23:48:27.314Z,6.7
2024-04-23T23:51:29.207Z,5.9
2024-04-23T23:54:31.203Z,7.2
2024-04-23T23:57:33.159Z,8.3
